עמוד ראשי
METAR-TAF:

METAR-TAF

שדות תעופה :

נסאו, איי בהאמה

קו רוחב: 25-03N, קו אורך: 077-28W, גובה: 3מטר

תצפית מזג אוויר נוכחית

הדו"ח נערך לפני 17דקות, בשעה 09:00 UTC
רוח 7קשר מכיוון דרום/דרום-מזרח
טמפרטורת 27 צלסיוס
לחות 79%
לחץ 1016 hPa
ראות 10 קילומטר או יותר
עננים פזורים בגובה 2000רגל
עננים פזורים בגובה 3200רגל

METAR: MYNN 270900Z 15007KT 9999 SCT020 SCT032 27/23 A2999

זמן: 05:17 (09:17 UTC)

תחזית

הדו"ח נערך לפני 4 שעות ו 17דקות, בשעה 05:00 UTC
תחזית בתוקף מ 27 ב 06 UTC עד 28 ב 06 UTC
רוח 4קשר מכיוון דרום/דרום-מזרח
ראות 10 קילומטר או יותר
מעט עננים בגובה 2200רגל , קומולונימבוס.
עננים פזורים בגובה 4000רגל
סופת רעמים במרחב
מ 27 ב 1200UTC
רוח 9קשר מכיוון דרום
ראות 10 קילומטר או יותר
מעט עננים בגובה 2000רגל , קומולונימבוס.
עננים פזורים בגובה 3000רגל
ממטרים במרחב, סופת רעמים במרחב,

TAF: MYNN 270500Z 2706/2806 16004KT 9999 VCTS FEW022CB SCT040 FM271200 17009KT 9999 VCSH VCTS FEW020CB SCT030

תצפיות ותחזיות מזג אוויר לגבי יותר מ- 4,000 שדות תעופה ברחבי העולם. דוחות METAR ו- TAF.

התחנות הזמינות מסומנות בנקודות צהובות ואדומות על גבי המפה.

העבר את העכבר לנקודה הצבעונית על מנת לראות את שם התחנה.

לאחר מכן, לחץ כדי לראות את תוכן ואת תחזיות מזג האוויר.

כדי לשנות את המפה: לחץ על הכפתורים הירוקים עם הפלוס השחור כדי להתקרב; על הכפתור הירוק עם המקף כדי להתרחק; או בחיצים הירוקים למפות סמוכות.


METAR-TAF: